Time;durP1;ratioP1;P1;durP2;ratioP2;P2;SDS_P1;SDS_P2;PMS_P1;PMS_P2;Temp;Humidity;BMP_temperature;BMP_pressure;BME280_temperature;BME280_humidity;BME280_pressure;Samples;Min_cycle;Max_cycle;Signal;HPM_P1;HPM_P2
2022/12/18 00:02:12;;;;;;;;;;;;;;;16.27;34.83;102014.28;7252381;19;153240;-55
2022/12/18 00:04:39;;;;;;;;;;;;;;;16.25;35.07;102016.50;7247638;19;154590;-55
2022/12/18 00:07:06;;;;;;;;;;;;;;;16.22;35.00;102022.56;7246750;19;153351;-55
2022/12/18 00:09:33;;;;;;;;;;;;;;;16.21;35.29;102022.84;7255689;19;153809;-55
2022/12/18 00:12:06;;;;;;;;;;;;;;;16.18;35.33;102009.38;7251037;19;154696;-55
2022/12/18 00:14:41;;;;;;;;;;;;;;;16.15;35.03;102009.91;7249667;19;154555;-55
2022/12/18 00:17:08;;;;;;;;;;;;;;;16.13;35.10;102012.09;7247437;19;153922;-55
2022/12/18 00:19:35;;;;;;;;;;;;;;;16.11;35.05;102003.16;7250691;19;153656;-55
2022/12/18 00:22:02;;;;;;;;;;;;;;;16.09;35.38;101991.41;7244477;19;154682;-55
2022/12/18 00:24:29;;;;;;;;;;;;;;;16.06;35.25;101986.34;7248232;19;152575;-55
2022/12/18 00:26:56;;;;;;;;;;;;;;;16.03;35.49;101985.72;7248548;19;153708;-55
2022/12/18 00:29:23;;;;;;;;;;;;;;;16.02;35.18;101991.56;7249775;19;153068;-55
2022/12/18 00:31:50;;;;;;;;;;;;;;;16.00;35.23;101986.25;7257285;19;154916;-55
2022/12/18 00:34:16;;;;;;;;;;;;;;;16.00;35.28;101980.66;7247082;19;154170;-55
2022/12/18 00:36:43;;;;;;;;;;;;;;;16.03;35.25;101979.34;7250572;19;155459;-55
2022/12/18 00:39:11;;;;;;;;;;;;;;;16.04;35.44;101983.78;7257043;19;154274;-55
2022/12/18 00:44:09;;;;;;;;;;;;;;;16.11;35.30;101978.91;7257146;19;154686;-55
2022/12/18 00:46:36;;;;;;;;;;;;;;;16.16;35.54;101978.16;7253573;19;152348;-55
2022/12/18 00:49:03;;;;;;;;;;;;;;;16.21;35.43;101976.28;7258130;19;154457;-55
2022/12/18 00:51:30;;;;;;;;;;;;;;;16.27;35.59;101985.56;7253570;19;154702;-55
2022/12/18 00:53:57;;;;;;;;;;;;;;;16.31;35.23;101981.16;7263019;19;155134;-55
2022/12/18 00:56:24;;;;;;;;;;;;;;;16.34;35.43;101981.53;7255287;19;154901;-55
2022/12/18 00:58:51;;;;;;;;;;;;;;;16.37;35.38;101977.38;7255195;19;154443;-55
2022/12/18 01:01:18;;;;;;;;;;;;;;;16.41;35.58;101973.81;7254632;19;154261;-55
2022/12/18 01:03:46;;;;;;;;;;;;;;;16.43;35.30;101980.00;7255600;19;156087;-55
2022/12/18 01:06:14;;;;;;;;;;;;;;;16.46;35.07;101982.25;7252389;19;153277;-57
2022/12/18 01:08:44;;;;;;;;;;;;;;;16.50;35.33;101973.38;7250467;19;154122;-55
2022/12/18 01:11:12;;;;;;;;;;;;;;;16.50;35.25;101968.63;7252572;19;153345;-55
2022/12/18 01:13:39;;;;;;;;;;;;;;;16.53;35.23;101970.09;7261739;19;152969;-55
2022/12/18 01:16:07;;;;;;;;;;;;;;;16.54;35.09;101967.03;7252089;19;153014;-57
2022/12/18 01:18:34;;;;;;;;;;;;;;;16.57;35.14;101962.88;7254184;19;154358;-55
2022/12/18 01:21:05;;;;;;;;;;;;;;;16.58;35.18;101968.22;7253867;19;153785;-56
2022/12/18 01:23:32;;;;;;;;;;;;;;;16.60;35.11;101956.81;7252773;19;155586;-56
2022/12/18 01:26:03;;;;;;;;;;;;;;;16.61;34.82;101952.94;7256393;19;153314;-55
2022/12/18 01:28:30;;;;;;;;;;;;;;;16.62;34.87;101943.47;7255338;19;153574;-55
2022/12/18 01:30:57;;;;;;;;;;;;;;;16.63;35.03;101939.56;7252884;19;155601;-55
2022/12/18 01:33:24;;;;;;;;;;;;;;;16.65;34.88;101943.78;7257611;19;153392;-55
2022/12/18 01:35:51;;;;;;;;;;;;;;;16.65;34.95;101937.38;7259630;19;153846;-55
2022/12/18 01:38:17;;;;;;;;;;;;;;;16.64;35.15;101935.66;7255294;19;152965;-55
2022/12/18 01:40:44;;;;;;;;;;;;;;;16.63;34.88;101929.25;7255724;19;154867;-55
2022/12/18 01:43:11;;;;;;;;;;;;;;;16.64;34.98;101922.56;7252953;19;153852;-55
2022/12/18 01:45:38;;;;;;;;;;;;;;;16.63;34.83;101918.06;7255950;19;154574;-56
2022/12/18 01:48:07;;;;;;;;;;;;;;;16.63;34.95;101912.50;7251336;19;153029;-55
2022/12/18 01:50:37;;;;;;;;;;;;;;;16.63;34.98;101908.84;7254248;19;153540;-55
2022/12/18 01:53:07;;;;;;;;;;;;;;;16.64;35.10;101910.56;7252329;19;154463;-55
2022/12/18 01:55:40;;;;;;;;;;;;;;;16.62;34.81;101908.03;7253745;19;152362;-56
2022/12/18 01:58:07;;;;;;;;;;;;;;;16.62;34.71;101907.19;7259466;19;154866;-55
2022/12/18 02:00:34;;;;;;;;;;;;;;;16.60;34.77;101910.22;7256129;19;152788;-55
2022/12/18 02:03:01;;;;;;;;;;;;;;;16.59;34.79;101916.06;7250028;19;155736;-55
2022/12/18 02:05:31;;;;;;;;;;;;;;;16.58;34.99;101914.41;7250494;19;153918;-55
2022/12/18 02:08:01;;;;;;;;;;;;;;;16.56;34.77;101927.72;7248741;19;153474;-55
2022/12/18 02:10:36;;;;;;;;;;;;;;;16.55;35.07;101920.44;7251669;19;153790;-55
2022/12/18 02:13:06;;;;;;;;;;;;;;;16.52;35.13;101923.75;7253950;19;153805;-55
2022/12/18 02:15:39;;;;;;;;;;;;;;;16.51;34.86;101925.69;7254644;19;154688;-55
2022/12/18 02:18:10;;;;;;;;;;;;;;;16.51;34.96;101930.44;7249346;19;154285;-55
2022/12/18 02:20:45;;;;;;;;;;;;;;;16.49;35.15;101936.25;7232349;19;154096;-55
2022/12/18 02:23:13;;;;;;;;;;;;;;;16.49;34.98;101943.81;7238732;19;153999;-55
2022/12/18 02:25:41;;;;;;;;;;;;;;;16.51;34.76;101942.44;7246439;19;154406;-55
2022/12/18 02:28:09;;;;;;;;;;;;;;;16.52;34.88;101938.56;7243951;19;154539;-56
2022/12/18 02:30:37;;;;;;;;;;;;;;;16.55;34.87;101943.59;7242448;19;155889;-55
2022/12/18 02:33:08;;;;;;;;;;;;;;;16.59;35.05;101941.16;7243979;19;153097;-55
2022/12/18 02:35:36;;;;;;;;;;;;;;;16.61;34.99;101942.63;7246943;19;153186;-55
2022/12/18 02:38:04;;;;;;;;;;;;;;;16.64;34.91;101939.31;7249613;19;154323;-55
2022/12/18 02:40:31;;;;;;;;;;;;;;;16.66;34.78;101951.06;7250950;19;153047;-55
2022/12/18 02:43:01;;;;;;;;;;;;;;;16.68;35.07;101957.22;7260640;19;154504;-55
2022/12/18 02:45:28;;;;;;;;;;;;;;;16.73;34.82;101968.44;7232374;19;153546;-55
2022/12/18 02:47:55;;;;;;;;;;;;;;;16.75;34.96;101962.63;7243100;19;153767;-55
2022/12/18 02:50:28;;;;;;;;;;;;;;;16.77;35.16;101960.41;7245288;19;154750;-55
2022/12/18 02:52:58;;;;;;;;;;;;;;;16.80;34.90;101963.53;7245394;19;153418;-55
2022/12/18 02:55:28;;;;;;;;;;;;;;;16.84;34.89;101969.44;7246847;19;155160;-55
2022/12/18 02:57:58;;;;;;;;;;;;;;;16.86;34.71;101968.06;7246043;19;154070;-55
2022/12/18 03:00:28;;;;;;;;;;;;;;;16.87;34.79;101958.59;7245783;19;152421;-55
2022/12/18 03:02:59;;;;;;;;;;;;;;;16.89;34.57;101959.19;7250209;19;154037;-55
2022/12/18 03:05:30;;;;;;;;;;;;;;;16.93;34.82;101955.88;7259256;19;154196;-56
2022/12/18 03:08:02;;;;;;;;;;;;;;;16.94;34.78;101955.63;7248669;19;154697;-56
2022/12/18 03:10:31;;;;;;;;;;;;;;;16.95;34.51;101948.91;7250926;19;154244;-56
2022/12/18 03:13:02;;;;;;;;;;;;;;;16.97;34.57;101937.50;7249153;19;153676;-56
2022/12/18 03:15:34;;;;;;;;;;;;;;;16.99;34.57;101927.75;7251826;19;153895;-55
2022/12/18 03:18:04;;;;;;;;;;;;;;;17.00;34.52;101921.06;7247687;19;154263;-56
2022/12/18 03:20:34;;;;;;;;;;;;;;;17.00;34.34;101925.81;7249913;19;152745;-56
2022/12/18 03:23:07;;;;;;;;;;;;;;;17.01;34.49;101921.91;7246869;19;154269;-55
2022/12/18 03:25:35;;;;;;;;;;;;;;;17.02;34.32;101916.09;7258394;19;154224;-56
2022/12/18 03:28:02;;;;;;;;;;;;;;;17.03;34.72;101922.50;7248035;19;154224;-55
2022/12/18 03:30:32;;;;;;;;;;;;;;;17.03;34.53;101914.13;7250468;19;153985;-55
2022/12/18 03:33:00;;;;;;;;;;;;;;;17.02;34.59;101910.50;7251831;19;153621;-55
2022/12/18 03:35:30;;;;;;;;;;;;;;;17.03;34.59;101900.19;7249000;19;154092;-56
2022/12/18 03:37:57;;;;;;;;;;;;;;;17.03;34.48;101902.97;7246338;19;154506;-55
2022/12/18 03:40:28;;;;;;;;;;;;;;;17.03;34.56;101901.03;7251383;19;154022;-55
2022/12/18 03:42:59;;;;;;;;;;;;;;;17.02;34.32;101902.13;7249409;19;154860;-56
2022/12/18 03:45:31;;;;;;;;;;;;;;;17.02;34.50;101892.91;7233184;19;156182;-56
2022/12/18 03:48:01;;;;;;;;;;;;;;;17.01;34.25;101900.44;7243282;19;154724;-55
2022/12/18 03:50:31;;;;;;;;;;;;;;;16.99;34.48;101905.41;7244955;19;155499;-55
2022/12/18 03:53:01;;;;;;;;;;;;;;;16.98;34.43;101903.75;7244521;19;154173;-55
2022/12/18 03:55:30;;;;;;;;;;;;;;;16.99;34.49;101888.66;7242809;19;153897;-55
2022/12/18 03:57:58;;;;;;;;;;;;;;;17.00;34.28;101895.09;7243880;19;154119;-55
2022/12/18 04:00:25;;;;;;;;;;;;;;;17.02;34.33;101892.91;7244429;19;152808;-56
2022/12/18 04:02:54;;;;;;;;;;;;;;;17.03;34.57;101881.47;7247491;19;154300;-55
2022/12/18 04:05:22;;;;;;;;;;;;;;;17.06;34.22;101880.94;7249572;19;154733;-56
2022/12/18 04:07:50;;;;;;;;;;;;;;;17.07;34.33;101879.00;7245538;19;154037;-56
2022/12/18 04:10:18;;;;;;;;;;;;;;;17.09;34.37;101882.34;7253612;19;155592;-56
2022/12/18 04:12:45;;;;;;;;;;;;;;;17.12;34.61;101881.84;7246868;19;153840;-56
2022/12/18 04:15:12;;;;;;;;;;;;;;;17.13;34.74;101878.78;7250990;19;153741;-56
2022/12/18 04:17:43;;;;;;;;;;;;;;;17.16;34.39;101878.28;7249399;19;155325;-56
2022/12/18 04:20:10;;;;;;;;;;;;;;;17.19;34.74;101877.72;7248616;19;154605;-56
2022/12/18 04:22:37;;;;;;;;;;;;;;;17.21;34.78;101880.28;7249173;19;153210;-56
2022/12/18 04:25:04;;;;;;;;;;;;;;;17.23;34.32;101873.31;7247031;19;153725;-56
2022/12/18 04:27:31;;;;;;;;;;;;;;;17.26;34.54;101866.38;7250625;19;153595;-56
2022/12/18 04:29:58;;;;;;;;;;;;;;;17.26;34.50;101878.34;7250744;19;154786;-57
2022/12/18 04:32:25;;;;;;;;;;;;;;;17.28;34.60;101867.78;7258232;19;153931;-55
2022/12/18 04:34:52;;;;;;;;;;;;;;;17.30;34.55;101868.38;7248712;19;152093;-56
2022/12/18 04:37:19;;;;;;;;;;;;;;;17.31;34.23;101856.06;7248247;19;154943;-56
2022/12/18 04:39:46;;;;;;;;;;;;;;;17.32;34.25;101852.16;7250236;19;154112;-56
2022/12/18 04:42:13;;;;;;;;;;;;;;;17.34;34.14;101858.34;7248086;19;154187;-56
2022/12/18 04:44:39;;;;;;;;;;;;;;;17.35;34.25;101856.41;7248092;19;155685;-55
2022/12/18 04:47:07;;;;;;;;;;;;;;;17.35;34.45;101853.59;7224071;19;155233;-56
2022/12/18 04:49:34;;;;;;;;;;;;;;;17.38;34.29;101853.06;7241402;19;155116;-56
2022/12/18 04:52:01;;;;;;;;;;;;;;;17.39;34.25;101848.31;7245298;19;155396;-56
2022/12/18 04:54:28;;;;;;;;;;;;;;;17.40;34.32;101850.03;7255114;19;153990;-56
2022/12/18 04:56:54;;;;;;;;;;;;;;;17.40;34.11;101844.44;7246772;19;154633;-55
2022/12/18 04:59:21;;;;;;;;;;;;;;;17.39;34.36;101839.94;7248246;19;153448;-55
2022/12/18 05:01:49;;;;;;;;;;;;;;;17.38;33.99;101825.13;7248900;19;153998;-56
2022/12/18 05:04:16;;;;;;;;;;;;;;;17.39;34.21;101831.56;7249282;19;154255;-56
2022/12/18 05:06:43;;;;;;;;;;;;;;;17.37;33.95;101811.41;7245619;19;153127;-55
2022/12/18 05:09:10;;;;;;;;;;;;;;;17.36;34.29;101810.56;7246512;19;153805;-55
2022/12/18 05:11:37;;;;;;;;;;;;;;;17.38;34.14;101800.00;7248092;19;154620;-55
2022/12/18 05:14:04;;;;;;;;;;;;;;;17.37;34.37;101800.25;7249249;19;154843;-55
2022/12/18 05:16:31;;;;;;;;;;;;;;;17.37;33.84;101797.47;7253890;19;154537;-55
2022/12/18 05:18:58;;;;;;;;;;;;;;;17.33;34.37;101798.00;7249837;19;154588;-55
2022/12/18 05:21:25;;;;;;;;;;;;;;;17.31;34.39;101785.38;7245072;19;153321;-55
2022/12/18 05:23:51;;;;;;;;;;;;;;;17.30;34.01;101779.00;7254147;19;153818;-55
2022/12/18 05:26:19;;;;;;;;;;;;;;;17.28;33.99;101775.63;7253017;19;155460;-56
2022/12/18 05:28:46;;;;;;;;;;;;;;;17.26;34.14;101768.63;7254706;19;153825;-55
2022/12/18 05:31:13;;;;;;;;;;;;;;;17.24;34.46;101768.03;7252449;19;154233;-55
2022/12/18 05:33:40;;;;;;;;;;;;;;;17.23;34.45;101769.13;7255196;19;153409;-55
2022/12/18 05:36:09;;;;;;;;;;;;;;;17.20;34.46;101773.31;7259429;19;153800;-57
2022/12/18 05:38:37;;;;;;;;;;;;;;;17.20;34.11;101762.16;7251632;19;152367;-57
2022/12/18 05:41:04;;;;;;;;;;;;;;;17.22;34.13;101756.28;7256485;19;153730;-57
2022/12/18 05:43:31;;;;;;;;;;;;;;;17.22;34.48;101750.69;7251999;19;153445;-57
2022/12/18 05:46:02;;;;;;;;;;;;;;;17.24;34.16;101746.53;7232494;19;154028;-57
2022/12/18 05:48:29;;;;;;;;;;;;;;;17.25;34.08;101742.63;7247664;19;154347;-57
2022/12/18 05:51:02;;;;;;;;;;;;;;;17.27;34.17;101747.94;7245237;19;153397;-57
2022/12/18 05:53:29;;;;;;;;;;;;;;;17.30;34.28;101753.00;7253639;19;153354;-57
2022/12/18 05:55:59;;;;;;;;;;;;;;;17.31;34.67;101758.31;7252098;19;153951;-57
2022/12/18 05:58:26;;;;;;;;;;;;;;;17.32;34.45;101743.25;7258286;19;155133;-57
2022/12/18 06:00:52;;;;;;;;;;;;;;;17.35;34.33;101734.31;7250028;19;153849;-57
2022/12/18 06:03:19;;;;;;;;;;;;;;;17.37;34.17;101738.81;7251840;19;155669;-57
2022/12/18 06:05:46;;;;;;;;;;;;;;;17.40;34.24;101738.28;7251993;19;152366;-57
2022/12/18 06:08:13;;;;;;;;;;;;;;;17.42;34.23;101738.84;7251736;19;153528;-57
2022/12/18 06:10:41;;;;;;;;;;;;;;;17.43;34.67;101723.78;7253622;19;154582;-55
2022/12/18 06:13:08;;;;;;;;;;;;;;;17.45;34.24;101713.16;7251856;19;151977;-57
2022/12/18 06:15:37;;;;;;;;;;;;;;;17.46;34.55;101709.25;7253928;19;154193;-57
2022/12/18 06:18:04;;;;;;;;;;;;;;;17.48;34.22;101721.00;7250048;19;154118;-56
2022/12/18 06:20:31;;;;;;;;;;;;;;;17.50;34.49;101721.56;7257216;19;154099;-56
2022/12/18 06:22:59;;;;;;;;;;;;;;;17.50;34.30;101714.03;7251546;19;153840;-56
2022/12/18 06:25:26;;;;;;;;;;;;;;;17.52;34.29;101702.59;7256505;19;153370;-56
2022/12/18 06:27:53;;;;;;;;;;;;;;;17.52;34.33;101691.44;7251669;19;153342;-56
2022/12/18 06:30:20;;;;;;;;;;;;;;;17.53;34.31;101681.94;7250880;19;155641;-55
2022/12/18 06:32:48;;;;;;;;;;;;;;;17.54;34.35;101675.22;7252786;19;151979;-56
2022/12/18 06:35:21;;;;;;;;;;;;;;;17.54;34.36;101672.44;7252465;19;154136;-56
2022/12/18 06:37:48;;;;;;;;;;;;;;;17.55;34.16;101662.94;7251538;19;153694;-56
2022/12/18 06:40:16;;;;;;;;;;;;;;;17.55;34.32;101662.94;7254865;19;153693;-55
2022/12/18 06:42:42;;;;;;;;;;;;;;;17.56;34.04;101656.25;7260075;19;154025;-56
2022/12/18 06:45:11;;;;;;;;;;;;;;;17.55;34.38;101654.56;7252948;19;153729;-56
2022/12/18 06:47:38;;;;;;;;;;;;;;;17.53;33.96;101643.66;7250092;19;154290;-56
2022/12/18 06:50:05;;;;;;;;;;;;;;;17.54;34.05;101639.75;7249222;19;154925;-56
2022/12/18 06:52:32;;;;;;;;;;;;;;;17.52;34.43;101653.16;7251078;19;153950;-56
2022/12/18 06:54:59;;;;;;;;;;;;;;;17.52;33.90;101663.50;7253800;19;153612;-56
2022/12/18 06:57:26;;;;;;;;;;;;;;;17.50;34.24;101668.50;7249900;19;154956;-56
2022/12/18 06:59:53;;;;;;;;;;;;;;;17.50;34.24;101666.53;7251866;19;154026;-56
2022/12/18 07:02:20;;;;;;;;;;;;;;;17.47;34.26;101655.06;7253579;19;153398;-56
2022/12/18 07:04:47;;;;;;;;;;;;;;;17.47;34.25;101653.13;7260227;19;153556;-56
2022/12/18 07:07:14;;;;;;;;;;;;;;;17.45;34.16;101655.34;7250091;19;154153;-55
2022/12/18 07:09:40;;;;;;;;;;;;;;;17.44;34.33;101647.25;7248938;19;153938;-56
2022/12/18 07:12:07;;;;;;;;;;;;;;;17.41;34.35;101647.75;7251676;19;154112;-56
2022/12/18 07:14:34;;;;;;;;;;;;;;;17.39;34.21;101639.69;7251152;19;152989;-57
2022/12/18 07:17:01;;;;;;;;;;;;;;;17.39;34.19;101636.03;7249617;19;153634;-56
2022/12/18 07:19:29;;;;;;;;;;;;;;;17.35;34.52;101627.38;7250469;19;154203;-56
2022/12/18 07:21:56;;;;;;;;;;;;;;;17.33;34.40;101636.00;7248578;19;153478;-56
2022/12/18 07:24:23;;;;;;;;;;;;;;;17.31;34.48;101632.63;7248241;19;154584;-55
2022/12/18 07:26:50;;;;;;;;;;;;;;;17.31;34.12;101637.38;7260072;19;152526;-55
2022/12/18 07:29:17;;;;;;;;;;;;;;;17.27;34.54;101634.28;7249232;19;153949;-55
2022/12/18 07:31:44;;;;;;;;;;;;;;;17.26;34.47;101632.59;7251641;19;153105;-55
2022/12/18 07:34:11;;;;;;;;;;;;;;;17.23;34.27;101621.97;7253387;19;154293;-57
2022/12/18 07:36:38;;;;;;;;;;;;;;;17.21;34.46;101624.22;7246810;19;153578;-55
2022/12/18 07:39:05;;;;;;;;;;;;;;;17.20;34.60;101619.72;7250915;19;154034;-55
2022/12/18 07:41:32;;;;;;;;;;;;;;;17.17;34.40;101616.66;7252310;19;152788;-55
2022/12/18 07:43:59;;;;;;;;;;;;;;;17.16;34.58;101620.53;7251810;19;155092;-56
2022/12/18 07:46:26;;;;;;;;;;;;;;;17.12;34.23;101606.28;7254558;19;153001;-56
2022/12/18 07:48:52;;;;;;;;;;;;;;;17.10;34.61;101605.69;7250256;19;155651;-55
2022/12/18 07:51:19;;;;;;;;;;;;;;;17.09;34.40;101605.97;7247392;19;151958;-55
2022/12/18 07:53:47;;;;;;;;;;;;;;;17.05;34.55;101594.50;7251534;19;153186;-55
2022/12/18 07:56:17;;;;;;;;;;;;;;;17.03;34.63;101590.31;7249424;19;154930;-55
2022/12/18 07:58:53;;;;;;;;;;;;;;;16.99;34.56;101581.59;7251150;19;154420;-55
2022/12/18 08:01:20;;;;;;;;;;;;;;;16.97;34.45;101577.41;7251498;19;153328;-55
2022/12/18 08:03:47;;;;;;;;;;;;;;;16.94;34.28;101573.22;7251448;19;155756;-55
2022/12/18 08:06:17;;;;;;;;;;;;;;;16.92;34.40;101581.00;7251189;19;154041;-54
2022/12/18 08:08:44;;;;;;;;;;;;;;;16.90;34.77;101578.47;7255480;19;153034;-55
2022/12/18 08:11:11;;;;;;;;;;;;;;;16.88;34.60;101593.81;7252574;19;154389;-55
2022/12/18 08:13:37;;;;;;;;;;;;;;;16.85;34.75;101586.81;7253185;19;153179;-55
2022/12/18 08:16:06;;;;;;;;;;;;;;;16.84;34.53;101590.72;7249880;19;153563;-56
2022/12/18 08:18:34;;;;;;;;;;;;;;;16.81;34.76;101591.25;7250002;19;153008;-55
2022/12/18 08:21:04;;;;;;;;;;;;;;;16.81;34.60;101609.94;7247139;19;153449;-55
2022/12/18 08:23:30;;;;;;;;;;;;;;;16.78;34.32;101610.47;7246416;19;154107;-54
2022/12/18 08:25:58;;;;;;;;;;;;;;;16.75;34.82;101609.09;7250710;19;153941;-55
2022/12/18 08:28:25;;;;;;;;;;;;;;;16.72;34.72;101600.38;7248067;19;153809;-56
2022/12/18 08:30:52;;;;;;;;;;;;;;;16.70;34.72;101597.03;7257006;19;154165;-55
2022/12/18 08:33:19;;;;;;;;;;;;;;;16.68;34.71;101599.22;7249579;19;153558;-55
2022/12/18 08:35:46;;;;;;;;;;;;;;;16.66;34.54;101602.31;7246381;19;156080;-55
2022/12/18 08:38:13;;;;;;;;;;;;;;;16.64;34.79;101601.72;7249458;19;152126;-55
2022/12/18 08:40:40;;;;;;;;;;;;;;;16.61;34.50;101605.06;7247970;19;155698;-55
2022/12/18 08:45:39;;;;;;;;;;;;;;;16.58;34.83;101601.97;7248258;19;153531;-55
2022/12/18 08:48:05;;;;;;;;;;;;;;;16.55;34.58;101585.69;7249629;19;153734;-55
2022/12/18 08:50:32;;;;;;;;;;;;;;;16.53;34.82;101590.72;7245440;19;154068;-55
2022/12/18 08:53:00;;;;;;;;;;;;;;;16.50;34.92;101600.44;7255504;19;153337;-55
2022/12/18 08:55:26;;;;;;;;;;;;;;;16.48;34.75;101601.84;7248977;19;154352;-55
2022/12/18 08:57:53;;;;;;;;;;;;;;;16.45;35.04;101600.41;7252770;19;154008;-56
2022/12/18 09:00:20;;;;;;;;;;;;;;;16.43;34.87;101595.09;7256084;19;152135;-55
2022/12/18 09:02:47;;;;;;;;;;;;;;;16.40;34.81;101592.81;7255082;19;154018;-56
2022/12/18 09:05:15;;;;;;;;;;;;;;;16.38;35.17;101594.22;7255500;19;153339;-55
2022/12/18 09:07:42;;;;;;;;;;;;;;;16.35;34.91;101592.78;7255962;19;154012;-55
2022/12/18 09:10:09;;;;;;;;;;;;;;;16.33;35.08;101591.38;7253495;19;155034;-56
2022/12/18 09:12:36;;;;;;;;;;;;;;;16.31;35.17;101602.78;7255007;19;153729;-55
2022/12/18 09:15:03;;;;;;;;;;;;;;;16.28;35.03;101594.09;7261948;19;153208;-55
2022/12/18 09:17:30;;;;;;;;;;;;;;;16.27;35.29;101598.00;7255970;19;152899;-55
2022/12/18 09:19:56;;;;;;;;;;;;;;;16.24;34.90;101604.09;7254190;19;153243;-55
2022/12/18 09:22:23;;;;;;;;;;;;;;;16.21;34.93;101607.44;7254384;19;154470;-55
2022/12/18 09:24:50;;;;;;;;;;;;;;;16.17;35.24;101584.78;7256126;19;153916;-55
2022/12/18 09:27:17;;;;;;;;;;;;;;;16.18;35.21;101589.28;7255122;19;154163;-55
2022/12/18 09:29:44;;;;;;;;;;;;;;;16.17;35.41;101578.41;7251739;19;156080;-55
2022/12/18 09:32:11;;;;;;;;;;;;;;;16.19;35.47;101588.16;7256613;19;152791;-55
2022/12/18 09:34:46;;;;;;;;;;;;;;;16.20;35.02;101598.22;7252622;19;154222;-57
2022/12/18 09:37:12;;;;;;;;;;;;;;;16.23;35.24;101610.78;7259752;19;153680;-57
2022/12/18 09:39:39;;;;;;;;;;;;;;;16.26;35.44;101616.66;7255427;19;152773;-56
2022/12/18 09:42:11;;;;;;;;;;;;;;;16.30;35.19;101619.78;7254481;19;153867;-56
2022/12/18 09:44:40;;;;;;;;;;;;;;;16.36;35.41;101615.94;7254821;19;153567;-56
2022/12/18 09:47:11;;;;;;;;;;;;;;;16.40;35.52;101612.34;7254840;19;154742;-56
2022/12/18 09:49:41;;;;;;;;;;;;;;;16.44;35.42;101604.31;7252974;19;153149;-56
2022/12/18 09:52:13;;;;;;;;;;;;;;;16.48;35.63;101594.31;7252744;19;153896;-56
2022/12/18 09:54:41;;;;;;;;;;;;;;;16.52;35.60;101603.81;7253927;19;154102;-56
2022/12/18 09:57:12;;;;;;;;;;;;;;;16.55;35.75;101599.66;7255896;19;154233;-56
2022/12/18 09:59:39;;;;;;;;;;;;;;;16.60;35.32;101611.72;7254893;19;155433;-56
2022/12/18 10:02:09;;;;;;;;;;;;;;;16.63;35.24;101610.34;7253185;19;154642;-57
2022/12/18 10:04:36;;;;;;;;;;;;;;;16.64;35.33;101607.31;7255787;19;153229;-56
2022/12/18 10:07:08;;;;;;;;;;;;;;;16.67;35.29;101608.72;7251887;19;154882;-56
2022/12/18 10:09:42;;;;;;;;;;;;;;;16.71;35.20;101609.88;7250940;19;154496;-56
2022/12/18 10:12:17;;;;;;;;;;;;;;;16.74;35.06;101612.97;7253475;19;153619;-56
2022/12/18 10:14:47;;;;;;;;;;;;;;;16.77;35.14;101606.00;7254800;19;153998;-56
2022/12/18 10:17:17;;;;;;;;;;;;;;;16.79;35.01;101603.81;7253452;19;154622;-56
2022/12/18 10:19:49;;;;;;;;;;;;;;;16.80;35.17;101602.69;7262215;19;153707;-56
2022/12/18 10:22:22;;;;;;;;;;;;;;;16.81;34.97;101598.78;7248853;19;154224;-56
2022/12/18 10:24:55;;;;;;;;;;;;;;;16.83;34.99;101594.63;7254361;19;154264;-56
2022/12/18 10:27:25;;;;;;;;;;;;;;;16.85;35.15;101586.00;7253078;19;152936;-56
2022/12/18 10:29:53;;;;;;;;;;;;;;;16.86;34.97;101593.25;7248780;19;154321;-56
2022/12/18 10:32:21;;;;;;;;;;;;;;;16.87;34.81;101597.72;7255275;19;153124;-56
2022/12/18 10:34:49;;;;;;;;;;;;;;;16.88;35.21;101594.66;7255344;19;153976;-56
2022/12/18 10:37:25;;;;;;;;;;;;;;;16.89;34.86;101578.78;7251987;19;154380;-56
2022/12/18 10:39:55;;;;;;;;;;;;;;;16.88;35.28;101565.91;7254766;19;154062;-56
2022/12/18 10:42:22;;;;;;;;;;;;;;;16.88;35.00;101563.97;7263216;19;156730;-56
2022/12/18 10:45:00;;;;;;;;;;;;;;;16.86;34.78;101555.00;7253614;19;153999;-56
2022/12/18 10:47:27;;;;;;;;;;;;;;;16.85;34.88;101555.31;7253729;19;154062;-56
2022/12/18 10:49:55;;;;;;;;;;;;;;;16.85;34.84;101553.31;7249651;19;153908;-56
2022/12/18 10:52:23;;;;;;;;;;;;;;;16.84;35.19;101540.50;7253640;19;152894;-55
2022/12/18 10:54:53;;;;;;;;;;;;;;;16.84;34.80;101534.91;7250361;19;152558;-55
2022/12/18 10:57:23;;;;;;;;;;;;;;;16.83;34.83;101524.88;7252484;19;153374;-56
2022/12/18 10:59:51;;;;;;;;;;;;;;;16.85;35.03;101513.44;7251881;19;153650;-55
2022/12/18 11:02:27;;;;;;;;;;;;;;;16.87;35.05;101514.00;7250889;19;153812;-55
2022/12/18 11:04:54;;;;;;;;;;;;;;;16.90;35.34;101494.75;7257645;19;154392;-55
2022/12/18 11:07:21;;;;;;;;;;;;;;;16.94;35.00;101494.22;7252276;19;153826;-55
2022/12/18 11:09:59;;;;;;;;;;;;;;;16.95;35.14;101485.56;7250281;19;153675;-55
2022/12/18 11:12:28;;;;;;;;;;;;;;;16.99;35.00;101474.72;7252252;19;154073;-55
2022/12/18 11:14:57;;;;;;;;;;;;;;;17.01;35.30;101481.69;7252726;19;154200;-55
2022/12/18 11:17:29;;;;;;;;;;;;;;;17.02;35.25;101480.59;7255814;19;156424;-55
2022/12/18 11:20:01;;;;;;;;;;;;;;;17.07;35.47;101483.41;7246447;19;153308;-56
2022/12/18 11:22:30;;;;;;;;;;;;;;;17.09;35.33;101475.59;7253256;19;153647;-56
2022/12/18 11:24:57;;;;;;;;;;;;;;;17.13;35.10;101475.88;7249793;19;154757;-55
2022/12/18 11:27:47;;;;;;;;;;;;;;;17.16;35.37;101464.19;7259633;19;153146;-56
2022/12/18 11:30:17;;;;;;;;;;;;;;;17.18;35.18;101454.41;7250508;19;153930;-56
2022/12/18 11:32:44;;;;;;;;;;;;;;;17.21;35.26;101442.72;7251040;19;154008;-55
2022/12/18 11:35:14;;;;;;;;;;;;;;;17.24;35.18;101441.31;7249597;19;153961;-56
2022/12/18 11:37:43;;;;;;;;;;;;;;;17.26;35.05;101441.88;7248134;19;152639;-56
2022/12/18 11:40:13;;;;;;;;;;;;;;;17.28;35.00;101437.69;7250910;19;152011;-56
2022/12/18 11:42:46;;;;;;;;;;;;;;;17.30;35.18;101426.25;7252158;19;153994;-57
2022/12/18 11:45:13;;;;;;;;;;;;;;;17.31;34.95;101434.34;7249944;19;154254;-56
2022/12/18 11:47:43;;;;;;;;;;;;;;;17.33;35.19;101431.28;7258648;19;152185;-56
2022/12/18 11:50:14;;;;;;;;;;;;;;;17.35;34.86;101435.47;7247929;19;155080;-56
2022/12/18 11:52:42;;;;;;;;;;;;;;;17.37;34.82;101414.81;7248213;19;155575;-55
2022/12/18 11:55:12;;;;;;;;;;;;;;;17.36;35.07;101416.75;7251641;19;153843;-55
2022/12/18 11:57:46;;;;;;;;;;;;;;;17.37;34.98;101417.59;7250116;19;153763;-55
2022/12/18 12:00:16;;;;;;;;;;;;;;;17.39;35.04;101413.44;7250442;19;154104;-55
2022/12/18 12:02:43;;;;;;;;;;;;;;;17.38;34.98;101395.00;7250354;19;153795;-56
2022/12/18 12:05:13;;;;;;;;;;;;;;;17.39;34.74;101398.63;7248390;19;155102;-56
2022/12/18 12:07:43;;;;;;;;;;;;;;;17.38;34.58;101399.72;7250158;19;154439;-56
2022/12/18 12:10:10;;;;;;;;;;;;;;;17.39;34.81;101387.44;7257547;19;154401;-55
2022/12/18 12:15:16;;;;;;;;;;;;;;;17.35;34.93;101382.41;7250966;19;153187;-55
2022/12/18 12:17:49;;;;;;;;;;;;;;;17.34;34.96;101371.53;7249808;19;153426;-55
2022/12/18 12:20:21;;;;;;;;;;;;;;;17.33;34.93;101361.47;7248754;19;154061;-56
2022/12/18 12:22:48;;;;;;;;;;;;;;;17.31;35.02;101346.94;7248428;19;153012;-56
2022/12/18 12:25:18;;;;;;;;;;;;;;;17.31;35.04;101344.13;7250703;19;154592;-56
2022/12/18 12:27:46;;;;;;;;;;;;;;;17.29;34.97;101340.78;7246504;19;153975;-56
2022/12/18 12:30:16;;;;;;;;;;;;;;;17.27;34.93;101326.25;7248715;19;154288;-56
2022/12/18 12:32:46;;;;;;;;;;;;;;;17.26;34.89;101319.03;7260898;19;154230;-56
2022/12/18 12:35:16;;;;;;;;;;;;;;;17.24;34.99;101315.66;7255203;19;154652;-56
2022/12/18 12:37:46;;;;;;;;;;;;;;;17.22;35.29;101318.72;7255734;19;153567;-56
2022/12/18 12:40:21;;;;;;;;;;;;;;;17.21;34.92;101313.44;7256803;19;153227;-56
2022/12/18 12:43:12;;;;;;;;;;;;;;;17.19;34.89;101319.28;7258390;19;154845;-55